Time;durP1;ratioP1;P1;durP2;ratioP2;P2;SDS_P1;SDS_P2;PMS_P1;PMS_P2;Temp;Humidity;BMP_temperature;BMP_pressure;BME280_temperature;BME280_humidity;BME280_pressure;Samples;Min_cycle;Max_cycle;Signal;HPM_P1;HPM_P2
2023/10/26 00:00:29;;;;;;;19.27;13.77;;;10.30;99.90;;;;;;5050700;28;20076;-75
2023/10/26 00:02:55;;;;;;;18.67;13.20;;;10.30;99.90;;;;;;5054057;28;20403;-76
2023/10/26 00:05:21;;;;;;;18.35;12.10;;;10.20;99.90;;;;;;5050568;28;21421;-75
2023/10/26 00:07:46;;;;;;;19.13;11.85;;;10.30;99.90;;;;;;5048107;28;20548;-75
2023/10/26 00:10:12;;;;;;;15.20;11.05;;;10.30;99.90;;;;;;5034476;28;20037;-75
2023/10/26 00:12:38;;;;;;;18.85;13.02;;;10.30;99.90;;;;;;5017853;28;20051;-75
2023/10/26 00:15:04;;;;;;;19.92;14.02;;;10.30;99.90;;;;;;5050869;28;20083;-76
2023/10/26 00:17:29;;;;;;;25.30;14.38;;;10.30;99.90;;;;;;5041111;28;20514;-75
2023/10/26 00:19:55;;;;;;;24.45;16.38;;;10.30;99.90;;;;;;5053104;28;20036;-75
2023/10/26 00:22:21;;;;;;;21.35;15.18;;;10.30;99.90;;;;;;5053887;28;20372;-75
2023/10/26 00:24:47;;;;;;;19.42;11.90;;;10.30;99.90;;;;;;5053526;28;20049;-75
2023/10/26 00:27:14;;;;;;;23.42;15.38;;;10.30;99.90;;;;;;5053259;28;20059;-75
2023/10/26 00:29:40;;;;;;;14.70;10.73;;;10.20;99.90;;;;;;5053298;28;20098;-75
2023/10/26 00:32:06;;;;;;;21.77;13.68;;;10.20;99.90;;;;;;5053627;28;20047;-75
2023/10/26 00:34:35;;;;;;;17.05;12.23;;;10.30;99.90;;;;;;5054317;28;20048;-75
2023/10/26 00:37:02;;;;;;;29.58;15.98;;;10.30;99.90;;;;;;5064387;28;20040;-75
2023/10/26 00:39:28;;;;;;;22.85;16.48;;;10.20;99.90;;;;;;5058118;28;20399;-75
2023/10/26 00:41:55;;;;;;;24.40;15.60;;;10.30;99.90;;;;;;5059601;28;20048;-75
2023/10/26 00:44:21;;;;;;;24.90;15.85;;;10.30;99.90;;;;;;5062273;28;20096;-75
2023/10/26 00:46:52;;;;;;;18.35;12.60;;;10.20;99.90;;;;;;5062400;28;20028;-75
2023/10/26 00:49:19;;;;;;;15.68;11.20;;;10.20;99.90;;;;;;5056505;28;20053;-75
2023/10/26 00:51:51;;;;;;;18.75;13.50;;;10.20;99.90;;;;;;5060375;28;21264;-75
2023/10/26 00:54:20;;;;;;;24.13;15.68;;;10.20;99.90;;;;;;5077548;28;20048;-75
2023/10/26 00:56:50;;;;;;;17.42;12.70;;;10.20;99.90;;;;;;5065836;28;20040;-75
2023/10/26 00:59:16;;;;;;;20.65;14.43;;;10.20;99.90;;;;;;5068338;28;20049;-75
2023/10/26 01:01:45;;;;;;;20.95;12.82;;;10.20;99.90;;;;;;5068553;28;20047;-75
2023/10/26 01:04:14;;;;;;;19.88;15.05;;;10.20;99.90;;;;;;5076871;28;20087;-75
2023/10/26 01:06:40;;;;;;;21.92;15.77;;;10.20;99.90;;;;;;5061947;28;20110;-75
2023/10/26 01:09:08;;;;;;;26.90;18.13;;;10.40;99.90;;;;;;5056732;28;20044;-75
2023/10/26 01:11:34;;;;;;;19.00;13.18;;;10.20;99.90;;;;;;5070413;28;20051;-75
2023/10/26 01:14:00;;;;;;;20.20;14.13;;;10.20;99.90;;;;;;5065779;28;20048;-75
2023/10/26 01:16:25;;;;;;;31.67;21.05;;;10.20;99.90;;;;;;5061360;28;20049;-75
2023/10/26 01:18:51;;;;;;;26.88;17.80;;;10.20;99.90;;;;;;5056787;28;20044;-76
2023/10/26 01:21:17;;;;;;;27.30;19.33;;;10.30;99.90;;;;;;5057446;28;20084;-76
2023/10/26 01:23:42;;;;;;;23.83;15.98;;;10.20;99.90;;;;;;5056905;28;20044;-76
2023/10/26 01:26:08;;;;;;;30.38;19.88;;;10.20;99.90;;;;;;5057515;28;20047;-76
2023/10/26 01:28:34;;;;;;;32.63;21.00;;;10.10;99.90;;;;;;5055909;28;20135;-77
2023/10/26 01:30:59;;;;;;;29.92;20.05;;;10.20;99.90;;;;;;5067233;28;20042;-76
2023/10/26 01:33:25;;;;;;;20.52;14.55;;;10.20;99.90;;;;;;5055763;28;20037;-76
2023/10/26 01:35:51;;;;;;;34.03;21.23;;;10.10;99.90;;;;;;5060507;28;20036;-76
2023/10/26 01:38:16;;;;;;;29.30;19.90;;;10.00;99.90;;;;;;5066331;28;20055;-76
2023/10/26 01:40:42;;;;;;;33.13;20.17;;;10.10;99.90;;;;;;5067015;28;20401;-76
2023/10/26 01:43:08;;;;;;;28.15;18.38;;;10.10;99.90;;;;;;5057060;28;20056;-75
2023/10/26 01:45:33;;;;;;;31.17;19.42;;;10.10;99.90;;;;;;5056641;28;20135;-76
2023/10/26 01:48:00;;;;;;;30.55;21.08;;;10.10;99.90;;;;;;5064993;28;20487;-76
2023/10/26 01:50:26;;;;;;;31.35;21.58;;;10.10;99.90;;;;;;5067630;28;20398;-75
2023/10/26 01:52:52;;;;;;;33.08;21.35;;;10.10;99.90;;;;;;5069210;28;20082;-76
2023/10/26 01:55:17;;;;;;;40.65;23.52;;;10.10;99.90;;;;;;5054498;28;20521;-75
2023/10/26 01:57:43;;;;;;;42.28;24.55;;;10.10;99.90;;;;;;5056052;28;20049;-77
2023/10/26 02:00:09;;;;;;;43.45;28.00;;;10.10;99.90;;;;;;5056185;28;20048;-76
2023/10/26 02:02:35;;;;;;;39.53;22.10;;;10.10;99.90;;;;;;5056667;28;20140;-76
2023/10/26 02:05:00;;;;;;;31.58;19.98;;;10.20;99.90;;;;;;5058568;28;20115;-76
2023/10/26 02:07:26;;;;;;;30.35;20.30;;;10.10;99.90;;;;;;5053011;28;20483;-76
2023/10/26 02:09:52;;;;;;;34.45;23.30;;;10.10;99.90;;;;;;5055321;28;20063;-77
2023/10/26 02:12:17;;;;;;;39.47;24.80;;;10.10;99.90;;;;;;5054918;28;20048;-76
2023/10/26 02:14:44;;;;;;;42.08;26.40;;;10.10;99.90;;;;;;5058633;28;20045;-76
2023/10/26 02:17:09;;;;;;;36.13;23.63;;;10.10;99.90;;;;;;5033044;28;20053;-76
2023/10/26 02:19:35;;;;;;;40.75;27.08;;;10.10;99.90;;;;;;5043180;28;20056;-76
2023/10/26 02:22:01;;;;;;;35.85;23.15;;;10.10;99.90;;;;;;5038636;28;20052;-76
2023/10/26 02:24:27;;;;;;;49.05;29.45;;;10.20;99.90;;;;;;5041200;28;20065;-76
2023/10/26 02:26:52;;;;;;;37.65;24.20;;;10.10;99.90;;;;;;5032316;28;20041;-76
2023/10/26 02:29:18;;;;;;;49.03;30.52;;;10.10;99.90;;;;;;5035335;28;20056;-76
2023/10/26 02:31:44;;;;;;;49.20;32.25;;;10.10;99.90;;;;;;5045823;28;20447;-76
2023/10/26 02:34:09;;;;;;;36.35;24.38;;;10.10;99.90;;;;;;5050677;28;20049;-76
2023/10/26 02:36:35;;;;;;;44.30;28.90;;;10.10;99.90;;;;;;5034050;28;20404;-76
2023/10/26 02:39:00;;;;;;;39.33;25.73;;;10.00;99.90;;;;;;5040667;28;20049;-76
2023/10/26 02:41:26;;;;;;;36.83;23.42;;;10.10;99.90;;;;;;5039087;28;20056;-76
2023/10/26 02:43:52;;;;;;;36.03;23.23;;;10.20;99.90;;;;;;5015638;28;20475;-76
2023/10/26 02:46:17;;;;;;;36.13;22.90;;;10.10;99.90;;;;;;5031066;28;20176;-76
2023/10/26 02:48:43;;;;;;;34.75;22.95;;;10.10;99.90;;;;;;5038657;28;20052;-76
2023/10/26 02:51:08;;;;;;;41.17;25.98;;;10.10;99.90;;;;;;5033251;28;20046;-76
2023/10/26 02:53:34;;;;;;;37.97;25.05;;;10.00;99.90;;;;;;5043166;28;20049;-76
2023/10/26 02:55:59;;;;;;;35.08;24.45;;;10.10;99.90;;;;;;5039635;28;20222;-76
2023/10/26 02:58:25;;;;;;;42.50;29.15;;;10.10;99.90;;;;;;5037740;28;20052;-76
2023/10/26 03:00:54;;;;;;;29.70;19.10;;;10.10;99.90;;;;;;5042916;28;20664;-75
2023/10/26 03:03:20;;;;;;;36.38;22.70;;;10.10;99.90;;;;;;5031955;28;20052;-75
2023/10/26 03:05:46;;;;;;;30.42;20.27;;;10.10;99.90;;;;;;5031012;28;20124;-75
2023/10/26 03:08:11;;;;;;;37.33;24.15;;;10.10;99.90;;;;;;5016914;28;20045;-75
2023/10/26 03:10:38;;;;;;;34.47;23.33;;;10.10;99.90;;;;;;5031438;28;20180;-76
2023/10/26 03:13:04;;;;;;;43.33;28.77;;;10.10;99.90;;;;;;5032155;28;20045;-76
2023/10/26 03:15:31;;;;;;;47.72;30.90;;;10.10;99.90;;;;;;5036546;28;20068;-76
2023/10/26 03:17:56;;;;;;;48.35;31.95;;;10.10;99.90;;;;;;5040950;28;20042;-75
2023/10/26 03:20:22;;;;;;;39.67;25.98;;;10.00;99.90;;;;;;5051336;28;20049;-76
2023/10/26 03:22:48;;;;;;;39.92;24.10;;;10.00;99.90;;;;;;5042717;28;20484;-76
2023/10/26 03:25:16;;;;;;;50.45;30.85;;;10.00;99.90;;;;;;5045700;28;20124;-76
2023/10/26 03:27:41;;;;;;;38.85;23.67;;;10.00;99.90;;;;;;5045919;28;20120;-75
2023/10/26 03:30:08;;;;;;;38.28;26.38;;;10.00;99.90;;;;;;5046948;28;20128;-76
2023/10/26 03:32:33;;;;;;;40.22;23.80;;;10.00;99.90;;;;;;5034178;28;20041;-77
2023/10/26 03:35:00;;;;;;;35.80;24.52;;;10.00;99.90;;;;;;5042604;28;20048;-76
2023/10/26 03:37:26;;;;;;;34.50;21.98;;;10.00;99.90;;;;;;5032788;28;20049;-77
2023/10/26 03:39:52;;;;;;;39.30;24.67;;;10.00;99.90;;;;;;5040441;28;20045;-76
2023/10/26 03:42:19;;;;;;;39.97;24.83;;;10.00;99.90;;;;;;5035814;28;20049;-77
2023/10/26 03:44:44;;;;;;;29.90;20.42;;;10.00;99.90;;;;;;5024033;28;20527;-76
2023/10/26 03:47:10;;;;;;;26.00;18.55;;;10.00;99.90;;;;;;5031549;28;20045;-76
2023/10/26 03:49:36;;;;;;;28.85;18.85;;;10.00;99.90;;;;;;5031403;28;20152;-76
2023/10/26 03:52:01;;;;;;;33.72;23.58;;;10.00;99.90;;;;;;5034271;28;20053;-76
2023/10/26 03:54:27;;;;;;;39.63;24.58;;;10.00;99.90;;;;;;5050429;28;20052;-76
2023/10/26 03:56:53;;;;;;;42.72;27.40;;;10.00;99.90;;;;;;5033245;28;20112;-75
2023/10/26 03:59:18;;;;;;;33.90;22.45;;;10.00;99.90;;;;;;5035770;28;20053;-76
2023/10/26 04:01:44;;;;;;;37.58;24.85;;;10.00;99.90;;;;;;5033383;28;20049;-76
2023/10/26 04:04:10;;;;;;;44.80;25.42;;;10.00;99.90;;;;;;5035891;28;20033;-75
2023/10/26 04:06:35;;;;;;;37.53;23.40;;;9.90;99.90;;;;;;5036710;28;20124;-76
2023/10/26 04:09:01;;;;;;;41.65;25.80;;;10.00;99.90;;;;;;5046249;28;20119;-76
2023/10/26 04:11:27;;;;;;;30.48;19.25;;;9.90;99.90;;;;;;5035494;28;20199;-76
2023/10/26 04:13:54;;;;;;;37.17;23.73;;;10.00;99.90;;;;;;5032085;28;20172;-76
2023/10/26 04:16:21;;;;;;;47.97;28.35;;;9.90;99.90;;;;;;5055922;28;20094;-76
2023/10/26 04:18:47;;;;;;;34.83;23.88;;;9.90;99.90;;;;;;5053586;28;20048;-75
2023/10/26 04:21:12;;;;;;;34.70;22.38;;;9.90;99.90;;;;;;5054742;28;20044;-76
2023/10/26 04:23:38;;;;;;;42.28;25.80;;;9.90;99.90;;;;;;5053852;28;20040;-77
2023/10/26 04:26:04;;;;;;;33.25;22.27;;;9.90;99.90;;;;;;5054354;28;20049;-77
2023/10/26 04:28:30;;;;;;;46.13;26.63;;;9.90;99.90;;;;;;5053204;28;20139;-76
2023/10/26 04:30:56;;;;;;;50.67;29.30;;;9.90;99.90;;;;;;5053281;28;20430;-76
2023/10/26 04:33:21;;;;;;;39.78;24.27;;;9.90;99.90;;;;;;5053770;28;20048;-76
2023/10/26 04:35:48;;;;;;;46.08;28.15;;;9.90;99.90;;;;;;5053303;28;20044;-76
2023/10/26 04:38:14;;;;;;;41.20;26.17;;;9.90;99.90;;;;;;5053484;28;20041;-76
2023/10/26 04:40:41;;;;;;;36.22;22.45;;;9.90;99.90;;;;;;5058753;28;20040;-76
2023/10/26 04:43:07;;;;;;;35.83;22.85;;;9.90;99.90;;;;;;5056681;28;20045;-76
2023/10/26 04:45:34;;;;;;;27.23;18.13;;;9.90;99.90;;;;;;5055111;28;20158;-76
2023/10/26 04:48:00;;;;;;;39.53;23.63;;;9.90;99.90;;;;;;5053664;28;20076;-76
2023/10/26 04:50:26;;;;;;;52.13;29.25;;;9.90;99.90;;;;;;5054216;28;20455;-75
2023/10/26 04:52:52;;;;;;;47.72;28.70;;;10.00;99.90;;;;;;5053468;28;20242;-76
2023/10/26 04:55:18;;;;;;;45.08;27.88;;;9.90;99.90;;;;;;5054513;28;20584;-75
2023/10/26 04:57:43;;;;;;;29.45;19.13;;;9.90;99.90;;;;;;5062375;28;20056;-77
2023/10/26 05:00:10;;;;;;;46.08;28.13;;;9.80;99.90;;;;;;5044354;28;20041;-76
2023/10/26 05:02:40;;;;;;;35.80;22.45;;;9.80;99.90;;;;;;5055093;28;20053;-76
2023/10/26 05:05:07;;;;;;;35.42;21.50;;;9.90;99.90;;;;;;5042911;28;20134;-76
2023/10/26 05:07:33;;;;;;;41.05;25.02;;;9.80;99.90;;;;;;5056366;28;20055;-76
2023/10/26 05:10:00;;;;;;;32.10;20.90;;;9.90;99.90;;;;;;5068762;28;20044;-75
2023/10/26 05:12:25;;;;;;;34.83;20.80;;;9.80;99.90;;;;;;5061836;28;20049;-76
2023/10/26 05:14:51;;;;;;;44.72;27.20;;;9.90;99.90;;;;;;5051379;28;20056;-76
2023/10/26 05:17:17;;;;;;;32.15;20.13;;;9.80;99.90;;;;;;5061152;28;20063;-76
2023/10/26 05:19:43;;;;;;;49.85;28.38;;;9.80;99.90;;;;;;5065748;28;20041;-76
2023/10/26 05:22:08;;;;;;;35.35;24.75;;;9.80;99.90;;;;;;5055501;28;20052;-76
2023/10/26 05:24:34;;;;;;;36.70;23.02;;;9.90;99.90;;;;;;5058300;28;20109;-76
2023/10/26 05:27:00;;;;;;;25.60;17.10;;;9.80;99.90;;;;;;5057567;28;20041;-76
2023/10/26 05:29:28;;;;;;;25.80;17.35;;;10.00;99.90;;;;;;5059379;28;20059;-76
2023/10/26 05:31:55;;;;;;;34.05;22.15;;;9.80;99.90;;;;;;5055611;28;20054;-75
2023/10/26 05:34:23;;;;;;;32.63;21.48;;;9.90;99.90;;;;;;5058221;28;20040;-76
2023/10/26 05:36:49;;;;;;;45.35;27.65;;;9.80;99.90;;;;;;5056906;28;20040;-76
2023/10/26 05:39:15;;;;;;;40.30;24.98;;;9.80;99.90;;;;;;5057795;28;20055;-75
2023/10/26 05:41:41;;;;;;;38.10;23.55;;;9.70;99.90;;;;;;5056342;28;20369;-76
2023/10/26 05:44:06;;;;;;;36.33;22.15;;;9.70;99.90;;;;;;5060920;28;20051;-75
2023/10/26 05:46:34;;;;;;;45.00;25.35;;;9.70;99.90;;;;;;5057853;28;20052;-76
2023/10/26 05:48:59;;;;;;;43.80;24.95;;;9.70;99.90;;;;;;5047731;28;20743;-76
2023/10/26 05:51:25;;;;;;;46.15;27.40;;;9.70;99.90;;;;;;5048641;28;20051;-77
2023/10/26 05:53:50;;;;;;;33.55;21.67;;;9.70;99.90;;;;;;5055571;28;20039;-77
2023/10/26 05:56:16;;;;;;;38.95;25.48;;;9.60;99.90;;;;;;5056366;28;20385;-76
2023/10/26 05:58:43;;;;;;;36.97;24.45;;;9.70;99.90;;;;;;5052215;28;20134;-76
2023/10/26 06:01:09;;;;;;;38.97;24.83;;;9.60;99.90;;;;;;5056021;28;20483;-77
2023/10/26 06:03:34;;;;;;;47.13;28.23;;;9.60;99.90;;;;;;5054273;28;20055;-77
2023/10/26 06:06:03;;;;;;;49.70;28.63;;;9.60;99.90;;;;;;5052111;28;20040;-77
2023/10/26 06:08:29;;;;;;;49.20;28.90;;;9.60;99.90;;;;;;5058000;28;20044;-77
2023/10/26 06:10:55;;;;;;;47.33;28.42;;;9.70;99.90;;;;;;5054265;28;20102;-75
2023/10/26 06:13:21;;;;;;;45.92;27.75;;;9.60;99.90;;;;;;5051585;28;20395;-76
2023/10/26 06:15:46;;;;;;;39.83;24.13;;;9.60;99.90;;;;;;5051779;28;20056;-76
2023/10/26 06:18:12;;;;;;;30.73;20.38;;;9.60;99.90;;;;;;5054683;28;20049;-77
2023/10/26 06:20:41;;;;;;;35.95;22.63;;;9.70;99.90;;;;;;5053457;28;20050;-78
2023/10/26 06:23:07;;;;;;;30.02;19.73;;;9.60;99.90;;;;;;5051592;28;20045;-76
2023/10/26 06:25:37;;;;;;;50.05;28.52;;;9.60;99.90;;;;;;5051605;28;20458;-77
2023/10/26 06:28:03;;;;;;;32.80;20.77;;;9.60;99.90;;;;;;5048049;28;20045;-77
2023/10/26 06:30:29;;;;;;;40.78;25.05;;;9.60;99.90;;;;;;5053746;28;20398;-78
2023/10/26 06:32:55;;;;;;;31.60;20.98;;;9.60;99.90;;;;;;5050825;28;20446;-77
2023/10/26 06:35:20;;;;;;;33.58;22.08;;;9.60;99.90;;;;;;5039345;28;20052;-76
2023/10/26 06:37:46;;;;;;;35.40;22.70;;;9.60;99.90;;;;;;5060388;28;20062;-77
2023/10/26 06:40:12;;;;;;;31.90;19.67;;;9.50;99.90;;;;;;5060135;28;20044;-78
2023/10/26 06:42:37;;;;;;;26.42;17.40;;;9.50;99.90;;;;;;5066145;28;20043;-75
2023/10/26 06:45:03;;;;;;;39.65;25.15;;;9.50;99.90;;;;;;5055919;28;20045;-75
2023/10/26 06:47:29;;;;;;;29.65;18.95;;;9.50;99.90;;;;;;5054529;28;20044;-75
2023/10/26 06:49:55;;;;;;;43.63;27.08;;;9.50;99.90;;;;;;5050833;28;20407;-75
2023/10/26 06:52:21;;;;;;;38.53;23.60;;;9.50;99.90;;;;;;5050381;28;20480;-75
2023/10/26 06:54:50;;;;;;;35.45;22.67;;;9.50;99.90;;;;;;5056043;28;20132;-75
2023/10/26 06:57:16;;;;;;;25.55;17.23;;;9.50;99.90;;;;;;5039177;28;20080;-75
2023/10/26 06:59:42;;;;;;;46.33;24.95;;;9.50;99.90;;;;;;5054089;28;20044;-76
2023/10/26 07:02:10;;;;;;;34.53;21.55;;;9.50;99.90;;;;;;5055816;28;20537;-76
2023/10/26 07:04:35;;;;;;;37.55;24.55;;;9.40;99.90;;;;;;5055289;28;20052;-75
2023/10/26 07:07:01;;;;;;;44.22;26.23;;;9.40;99.90;;;;;;5056042;28;20055;-75
2023/10/26 07:09:27;;;;;;;25.35;16.45;;;9.40;99.90;;;;;;5055565;28;20048;-75
2023/10/26 07:11:53;;;;;;;40.00;23.70;;;9.40;99.90;;;;;;5055359;28;20064;-76
2023/10/26 07:14:18;;;;;;;26.85;17.13;;;9.40;99.90;;;;;;5054125;28;20055;-77
2023/10/26 07:16:44;;;;;;;37.90;22.77;;;9.40;99.90;;;;;;5055300;28;20063;-76
2023/10/26 07:19:10;;;;;;;31.60;20.23;;;9.40;99.90;;;;;;5053571;28;20506;-76
2023/10/26 07:21:36;;;;;;;39.13;23.95;;;9.50;99.90;;;;;;5062286;28;20044;-76
2023/10/26 07:24:02;;;;;;;24.00;16.02;;;9.40;99.90;;;;;;5054045;28;20378;-77
2023/10/26 07:26:29;;;;;;;33.58;20.15;;;9.40;99.90;;;;;;5049639;28;20060;-77
2023/10/26 07:28:57;;;;;;;46.38;26.95;;;9.40;99.90;;;;;;5054750;28;20102;-76
2023/10/26 07:31:23;;;;;;;44.28;25.48;;;9.40;99.90;;;;;;5053001;28;20057;-76
2023/10/26 07:33:49;;;;;;;58.05;33.53;;;9.40;99.90;;;;;;5053368;28;20119;-76
2023/10/26 07:36:14;;;;;;;59.13;32.38;;;9.50;99.90;;;;;;5051841;28;20132;-76
2023/10/26 07:38:41;;;;;;;44.33;25.45;;;9.40;99.90;;;;;;5052353;28;20563;-78
2023/10/26 07:41:09;;;;;;;39.75;23.15;;;9.50;99.90;;;;;;5034533;28;20051;-77
2023/10/26 07:43:35;;;;;;;42.38;25.15;;;9.50;99.90;;;;;;5053437;28;20052;-76
2023/10/26 07:46:01;;;;;;;47.28;25.50;;;9.50;99.90;;;;;;5064341;28;20499;-76
2023/10/26 07:48:27;;;;;;;53.03;28.45;;;9.50;99.90;;;;;;5063185;28;20051;-76
2023/10/26 07:50:52;;;;;;;50.72;29.40;;;9.50;99.90;;;;;;5056038;28;20047;-76
2023/10/26 07:53:18;;;;;;;66.75;34.63;;;9.60;99.90;;;;;;5055432;28;20052;-76
2023/10/26 07:55:44;;;;;;;61.00;32.70;;;9.70;99.90;;;;;;5053351;28;20052;-76
2023/10/26 07:58:10;;;;;;;57.65;30.85;;;9.60;99.90;;;;;;5052670;28;20161;-76
2023/10/26 08:00:39;;;;;;;65.35;33.95;;;9.70;99.90;;;;;;5053989;28;20510;-76
2023/10/26 08:03:04;;;;;;;59.58;33.15;;;9.70;99.90;;;;;;5053770;28;20044;-76
2023/10/26 08:05:30;;;;;;;62.70;31.30;;;9.80;99.90;;;;;;5053330;28;20044;-76
2023/10/26 08:07:56;;;;;;;81.95;37.55;;;9.80;99.90;;;;;;5052187;28;20045;-77
2023/10/26 08:10:23;;;;;;;71.00;35.20;;;9.80;99.90;;;;;;5045475;28;20072;-76
2023/10/26 08:12:52;;;;;;;73.40;38.17;;;9.90;99.90;;;;;;5037681;28;20051;-76
2023/10/26 08:15:20;;;;;;;67.15;34.42;;;9.90;99.90;;;;;;5052252;28;20056;-75
2023/10/26 08:17:46;;;;;;;67.03;33.97;;;10.00;99.90;;;;;;5051314;28;20052;-76
2023/10/26 08:20:12;;;;;;;61.33;31.63;;;10.00;99.90;;;;;;5054452;28;20412;-76
2023/10/26 08:22:37;;;;;;;62.05;34.28;;;10.00;99.90;;;;;;5082235;28;20131;-76
2023/10/26 08:25:04;;;;;;;58.53;30.40;;;10.00;99.90;;;;;;5071306;28;20124;-76
2023/10/26 08:27:31;;;;;;;53.35;31.08;;;10.00;99.90;;;;;;5052872;28;20380;-75
2023/10/26 08:29:57;;;;;;;46.92;27.25;;;10.00;99.90;;;;;;5051648;28;20053;-75
2023/10/26 08:32:23;;;;;;;47.85;27.45;;;10.00;99.90;;;;;;5053984;28;20063;-75
2023/10/26 08:34:49;;;;;;;54.30;27.77;;;10.10;99.90;;;;;;5072007;28;20070;-77
2023/10/26 08:37:14;;;;;;;81.07;35.45;;;10.10;99.90;;;;;;5054168;28;20052;-76
2023/10/26 08:39:40;;;;;;;48.03;27.30;;;10.10;99.90;;;;;;5054380;28;20055;-75
2023/10/26 08:42:06;;;;;;;41.67;25.52;;;10.20;99.90;;;;;;5053837;28;20052;-75
2023/10/26 08:44:32;;;;;;;41.53;25.33;;;10.30;99.90;;;;;;5062548;28;20072;-75
2023/10/26 08:47:01;;;;;;;47.65;27.20;;;10.20;99.90;;;;;;5052950;28;20045;-75
2023/10/26 08:49:28;;;;;;;44.58;24.92;;;10.20;99.90;;;;;;5053039;28;20044;-75
2023/10/26 08:51:54;;;;;;;48.72;27.20;;;10.20;99.90;;;;;;5053315;28;20137;-75
2023/10/26 08:54:20;;;;;;;52.22;29.15;;;10.20;99.90;;;;;;5055960;28;20075;-77
2023/10/26 08:56:46;;;;;;;40.30;22.27;;;10.20;99.90;;;;;;5067138;28;20154;-76
2023/10/26 08:59:12;;;;;;;44.35;25.30;;;10.20;99.90;;;;;;5069645;28;20059;-75
2023/10/26 09:01:37;;;;;;;41.45;24.30;;;10.20;99.90;;;;;;5057100;28;20055;-76
2023/10/26 09:04:11;;;;;;;36.10;22.27;;;10.20;99.90;;;;;;5055888;28;20114;-75
2023/10/26 09:06:44;;;;;;;34.60;21.20;;;10.20;99.90;;;;;;5053172;28;20044;-76
2023/10/26 09:09:10;;;;;;;35.78;22.50;;;10.20;99.90;;;;;;5057439;28;20055;-76
2023/10/26 09:11:36;;;;;;;36.35;20.83;;;10.30;99.90;;;;;;5060513;28;20044;-75
2023/10/26 09:14:28;;;;;;;39.65;22.50;;;10.30;99.90;;;;;;5056733;28;20049;-75
2023/10/26 09:16:54;;;;;;;38.13;22.83;;;10.30;99.90;;;;;;5051761;28;20060;-75
2023/10/26 09:19:20;;;;;;;38.38;22.63;;;10.30;99.90;;;;;;5055711;28;20040;-75
2023/10/26 09:21:57;;;;;;;42.30;22.35;;;10.30;99.90;;;;;;5059460;28;20135;-75
2023/10/26 09:24:26;;;;;;;39.58;21.98;;;10.30;99.90;;;;;;5067361;28;20431;-75
2023/10/26 09:26:52;;;;;;;36.45;21.70;;;10.40;99.90;;;;;;5063499;28;20037;-75
2023/10/26 09:29:20;;;;;;;38.25;22.15;;;10.40;99.90;;;;;;5055460;28;20131;-75
2023/10/26 09:31:54;;;;;;;38.70;22.67;;;10.40;99.90;;;;;;5055959;28;20083;-75
2023/10/26 09:34:26;;;;;;;32.42;20.65;;;10.40;99.90;;;;;;5056456;28;20044;-74
2023/10/26 09:37:03;;;;;;;38.97;22.25;;;10.40;99.90;;;;;;5061020;28;20052;-75
2023/10/26 09:39:31;;;;;;;35.70;22.40;;;10.40;99.90;;;;;;5055862;28;20147;-75
2023/10/26 09:41:59;;;;;;;31.73;20.92;;;10.40;99.90;;;;;;5056910;28;20543;-75
2023/10/26 09:44:24;;;;;;;35.47;21.50;;;10.40;99.90;;;;;;5054835;28;20044;-75
2023/10/26 09:46:50;;;;;;;30.35;19.77;;;10.50;99.90;;;;;;5057219;28;20501;-76
2023/10/26 09:49:16;;;;;;;27.35;17.25;;;10.50;99.90;;;;;;5067557;28;20056;-75
2023/10/26 09:51:44;;;;;;;31.98;20.17;;;10.50;99.90;;;;;;5056458;28;20067;-75
2023/10/26 09:54:10;;;;;;;32.88;22.05;;;10.50;99.90;;;;;;5056640;28;20044;-74
2023/10/26 09:56:39;;;;;;;28.95;19.10;;;10.60;99.90;;;;;;5062785;28;20133;-75
2023/10/26 09:59:05;;;;;;;35.72;20.08;;;10.60;99.90;;;;;;5074213;28;20049;-75
2023/10/26 10:01:37;;;;;;;38.03;23.17;;;10.60;99.90;;;;;;5048101;28;20040;-74
2023/10/26 10:04:04;;;;;;;43.00;26.13;;;10.60;99.90;;;;;;5052593;28;20080;-74
2023/10/26 10:06:51;;;;;;;36.83;22.10;;;10.60;99.90;;;;;;5055621;28;20492;-74
2023/10/26 10:09:22;;;;;;;32.05;21.23;;;10.60;99.90;;;;;;5052521;28;20040;-76
2023/10/26 10:12:07;;;;;;;41.70;25.95;;;10.70;99.90;;;;;;5055570;28;20043;-76
2023/10/26 10:14:51;;;;;;;42.38;26.08;;;10.70;99.90;;;;;;5036944;28;20132;-77
2023/10/26 10:17:18;;;;;;;42.47;25.38;;;10.80;99.90;;;;;;5066884;28;20071;-78
2023/10/26 10:20:07;;;;;;;42.05;25.98;;;10.80;99.90;;;;;;5036579;28;20044;-73
2023/10/26 10:22:39;;;;;;;40.00;26.17;;;10.90;99.90;;;;;;5031396;28;20049;-79
2023/10/26 10:25:09;;;;;;;39.22;25.73;;;10.90;99.90;;;;;;5049146;28;20044;-79
2023/10/26 10:27:35;;;;;;;39.85;25.23;;;11.00;99.90;;;;;;5048077;28;20135;-79
2023/10/26 10:30:08;;;;;;;39.50;24.88;;;11.00;99.90;;;;;;5064811;28;20166;-79
2023/10/26 10:32:42;;;;;;;39.97;26.40;;;11.10;99.90;;;;;;5063566;28;20054;-77
2023/10/26 10:35:12;;;;;;;41.63;27.17;;;11.20;99.90;;;;;;5060281;28;20045;-76
2023/10/26 10:37:38;;;;;;;45.75;28.55;;;11.20;99.90;;;;;;5048046;28;20119;-76
2023/10/26 10:40:16;;;;;;;40.60;28.00;;;11.30;99.90;;;;;;5064882;28;20109;-77
2023/10/26 10:42:48;;;;;;;40.67;27.15;;;11.30;99.90;;;;;;5061233;28;20414;-76
2023/10/26 10:45:15;;;;;;;40.08;26.40;;;11.40;99.90;;;;;;5046099;28;20051;-76
2023/10/26 10:47:42;;;;;;;40.47;26.80;;;11.30;99.90;;;;;;5049024;28;20044;-76
2023/10/26 10:50:18;;;;;;;38.22;27.27;;;11.40;99.90;;;;;;5044234;28;20054;-76
2023/10/26 10:52:44;;;;;;;43.72;28.70;;;11.40;99.90;;;;;;5049481;28;20048;-76
2023/10/26 10:55:10;;;;;;;40.20;29.45;;;11.50;99.90;;;;;;5050163;28;20167;-76
2023/10/26 10:57:57;;;;;;;42.45;28.30;;;11.50;99.90;;;;;;5038763;28;20120;-76
2023/10/26 11:00:27;;;;;;;45.15;30.25;;;11.50;99.90;;;;;;5046408;28;20040;-76
2023/10/26 11:02:59;;;;;;;45.72;30.30;;;11.50;99.90;;;;;;5046878;28;20040;-76
2023/10/26 11:05:40;;;;;;;42.70;29.85;;;11.50;99.90;;;;;;5042504;28;20050;-81
2023/10/26 11:08:07;;;;;;;47.40;27.45;;;11.50;99.90;;;;;;5061681;28;20060;-80
2023/10/26 11:10:33;;;;;;;39.63;27.17;;;11.50;99.90;;;;;;5068278;28;20076;-80
2023/10/26 11:12:59;;;;;;;38.45;28.13;;;11.50;99.90;;;;;;5073401;28;20047;-81
2023/10/26 11:15:36;;;;;;;43.38;29.50;;;11.60;99.90;;;;;;5072059;28;20057;-79
2023/10/26 11:18:04;;;;;;;38.90;28.05;;;11.70;99.90;;;;;;5055877;28;20601;-78
2023/10/26 11:20:34;;;;;;;41.58;27.23;;;11.70;99.90;;;;;;5071579;28;20079;-80
2023/10/26 11:23:00;;;;;;;40.70;27.77;;;11.80;99.90;;;;;;5078228;28;20065;-78
2023/10/26 11:25:27;;;;;;;40.65;27.48;;;11.90;99.90;;;;;;5074791;28;20414;-80
2023/10/26 11:27:52;;;;;;;39.97;26.42;;;11.90;99.90;;;;;;5070708;28;20375;-81
2023/10/26 11:30:18;;;;;;;32.80;23.27;;;12.00;99.90;;;;;;5053586;28;20045;-80
2023/10/26 11:32:44;;;;;;;36.97;26.25;;;11.90;99.90;;;;;;5072923;28;20051;-80
2023/10/26 11:35:14;;;;;;;40.42;25.98;;;11.90;99.90;;;;;;5055109;28;20044;-80
2023/10/26 11:37:54;;;;;;;42.60;29.25;;;11.90;99.90;;;;;;5073400;28;20056;-81
2023/10/26 11:40:29;;;;;;;43.30;28.58;;;11.90;99.90;;;;;;5072957;28;20101;-82
2023/10/26 11:42:59;;;;;;;48.88;30.02;;;11.80;99.90;;;;;;5073031;28;20044;-80
2023/10/26 11:45:27;;;;;;;45.55;29.50;;;11.80;99.90;;;;;;5072569;28;20472;-80
2023/10/26 11:47:57;;;;;;;52.72;33.15;;;11.70;99.90;;;;;;5071939;28;20406;-80
2023/10/26 11:50:28;;;;;;;44.78;30.65;;;11.70;99.90;;;;;;5072565;28;20040;-79
2023/10/26 11:52:56;;;;;;;43.90;29.63;;;11.70;99.90;;;;;;5071411;28;20045;-80
2023/10/26 11:55:22;;;;;;;50.28;31.98;;;11.70;99.90;;;;;;5073605;28;20032;-80
2023/10/26 11:57:55;;;;;;;47.83;30.05;;;11.70;99.90;;;;;;5073342;28;20044;-80
2023/10/26 12:00:22;;;;;;;36.75;24.92;;;11.60;99.90;;;;;;5055575;28;20127;-79
2023/10/26 12:02:52;;;;;;;45.03;29.30;;;11.60;99.90;;;;;;5072052;28;20040;-80
2023/10/26 12:05:19;;;;;;;40.10;25.60;;;11.60;99.90;;;;;;5046323;28;20044;-80
2023/10/26 12:07:46;;;;;;;39.75;26.33;;;11.60;99.90;;;;;;5057008;28;20052;-80
2023/10/26 12:10:13;;;;;;;41.42;27.90;;;11.60;99.90;;;;;;5073060;28;20059;-80
2023/10/26 12:12:38;;;;;;;41.90;27.55;;;11.70;99.90;;;;;;5072182;28;20052;-78
2023/10/26 12:15:05;;;;;;;35.97;24.55;;;11.70;99.90;;;;;;5071491;28;20048;-78
2023/10/26 12:17:31;;;;;;;40.05;25.58;;;11.70;99.90;;;;;;5064741;28;20094;-78
2023/10/26 12:19:57;;;;;;;35.38;22.50;;;11.70;99.90;;;;;;5057456;28;20451;-78
2023/10/26 12:22:24;;;;;;;33.50;23.10;;;11.70;99.90;;;;;;5057870;28;20036;-78
2023/10/26 12:24:49;;;;;;;37.15;24.60;;;11.70;99.90;;;;;;5071536;28;20484;-78
2023/10/26 12:27:20;;;;;;;33.20;22.02;;;11.80;99.90;;;;;;5063814;28;20062;-78
2023/10/26 12:29:47;;;;;;;45.13;28.48;;;11.80;99.90;;;;;;5054524;28;20049;-78